createdAt,value
2022-11-16T00:01:40.035Z,100084.13
2022-11-16T00:04:11.970Z,100083.78
2022-11-16T00:06:41.450Z,100078.75
2022-11-16T00:09:23.860Z,100084.75
2022-11-16T00:11:54.822Z,100084.00
2022-11-16T00:14:25.730Z,100086.59
2022-11-16T00:16:53.786Z,100075.19
2022-11-16T00:19:22.109Z,100064.41
2022-11-16T00:21:50.879Z,100068.63
2022-11-16T00:24:20.548Z,100073.56
2022-11-16T00:26:48.788Z,100067.28
2022-11-16T00:29:22.316Z,100067.00
2022-11-16T00:31:51.483Z,100066.47
2022-11-16T00:34:20.266Z,100063.13
2022-11-16T00:36:48.856Z,100061.03
2022-11-16T00:39:18.990Z,100058.97
2022-11-16T00:41:48.264Z,100057.44
2022-11-16T00:44:16.558Z,100052.97
2022-11-16T00:46:44.887Z,100054.25
2022-11-16T00:49:13.444Z,100057.16
2022-11-16T00:51:41.806Z,100047.22
2022-11-16T00:54:09.901Z,100036.81
2022-11-16T00:56:38.438Z,100029.00
2022-11-16T00:59:07.539Z,100034.75
2022-11-16T01:01:35.428Z,100021.69
2022-11-16T01:04:04.446Z,100025.94
2022-11-16T01:06:32.493Z,100016.72
2022-11-16T01:09:01.457Z,100016.50
2022-11-16T01:11:48.045Z,100012.81
2022-11-16T01:14:16.111Z,100003.84
2022-11-16T01:16:49.532Z,100003.66
2022-11-16T01:19:17.224Z,100002.63
2022-11-16T01:21:49.411Z,100011.38
2022-11-16T01:24:17.420Z,99997.16
2022-11-16T01:26:45.529Z,99995.13
2022-11-16T01:29:13.531Z,99990.41
2022-11-16T01:31:42.530Z,100001.38
2022-11-16T01:34:10.935Z,99999.84
2022-11-16T01:36:38.716Z,99995.50
2022-11-16T01:39:06.461Z,99990.28
2022-11-16T01:41:35.140Z,99991.31
2022-11-16T01:44:06.994Z,99990.69
2022-11-16T01:46:35.831Z,99978.81
2022-11-16T01:49:10.708Z,99977.78
2022-11-16T01:51:41.479Z,99970.63
2022-11-16T01:54:12.666Z,99970.13
2022-11-16T01:56:47.289Z,99964.28
2022-11-16T01:59:36.112Z,99964.56
2022-11-16T02:02:05.103Z,99962.72
2022-11-16T02:04:33.820Z,99958.13
2022-11-16T02:07:20.710Z,99951.31
2022-11-16T02:10:13.434Z,99953.03
2022-11-16T02:13:26.207Z,99953.72
2022-11-16T02:16:06.273Z,99953.03
2022-11-16T02:18:43.178Z,99946.94
2022-11-16T02:21:31.058Z,99940.59
2022-11-16T02:24:24.730Z,99940.66
2022-11-16T02:27:34.404Z,99934.66
2022-11-16T02:30:05.197Z,99927.72
2022-11-16T02:33:04.833Z,99925.66
2022-11-16T02:35:40.461Z,99923.25
2022-11-16T02:38:14.147Z,99920.03
2022-11-16T02:40:48.597Z,99920.84
2022-11-16T02:43:30.963Z,99916.66
2022-11-16T02:46:03.558Z,99918.50
2022-11-16T02:48:37.017Z,99913.72
2022-11-16T02:51:07.138Z,99908.84
2022-11-16T02:54:04.006Z,99906.69
2022-11-16T02:56:47.213Z,99892.34
2022-11-16T02:59:17.789Z,99898.34
2022-11-16T03:02:25.571Z,99897.84
2022-11-16T03:05:04.924Z,99891.41
2022-11-16T03:07:39.879Z,99894.91
2022-11-16T03:10:08.856Z,99883.53
2022-11-16T03:12:40.938Z,99892.59
2022-11-16T03:15:11.868Z,99890.75
2022-11-16T03:17:46.144Z,99886.09
2022-11-16T03:20:26.121Z,99885.88
2022-11-16T03:23:01.266Z,99882.78
2022-11-16T03:25:37.171Z,99881.06
2022-11-16T03:28:15.756Z,99874.50
2022-11-16T03:30:51.065Z,99868.16
2022-11-16T03:33:22.336Z,99867.22
2022-11-16T03:36:06.668Z,99872.56
2022-11-16T03:38:37.980Z,99868.31
2022-11-16T03:41:09.747Z,99862.41
2022-11-16T03:43:40.975Z,99864.59
2022-11-16T03:46:09.077Z,99862.22
2022-11-16T03:48:39.530Z,99857.25
2022-11-16T03:51:10.715Z,99861.69
2022-11-16T03:53:39.249Z,99860.91
2022-11-16T03:56:11.005Z,99854.41
2022-11-16T03:58:39.796Z,99849.94
2022-11-16T04:01:27.605Z,99844.84
2022-11-16T04:03:56.293Z,99849.19
2022-11-16T04:06:43.219Z,99845.28
2022-11-16T04:09:30.031Z,99845.00
2022-11-16T04:12:30.297Z,99839.09
2022-11-16T04:15:16.990Z,99840.06
2022-11-16T04:18:03.286Z,99828.88
2022-11-16T04:20:49.700Z,99835.47
2022-11-16T04:23:38.162Z,99829.59
2022-11-16T04:26:08.149Z,99825.06
2022-11-16T04:28:37.449Z,99822.31
2022-11-16T04:31:45.149Z,99811.50
2022-11-16T04:34:51.962Z,99811.44
2022-11-16T04:37:48.798Z,99814.50
2022-11-16T04:40:36.845Z,99810.69
2022-11-16T04:43:24.439Z,99796.91
2022-11-16T04:46:14.653Z,99803.19
2022-11-16T04:48:43.660Z,99800.91
2022-11-16T04:51:12.509Z,99799.47
2022-11-16T04:54:16.394Z,99794.59
2022-11-16T04:56:48.151Z,99797.59
2022-11-16T04:59:35.878Z,99788.50
2022-11-16T05:02:10.288Z,99793.09
2022-11-16T05:04:41.619Z,99791.03
2022-11-16T05:07:12.817Z,99791.50
2022-11-16T05:10:10.420Z,99793.88
2022-11-16T05:12:38.897Z,99794.03
2022-11-16T05:15:07.535Z,99790.47
2022-11-16T05:17:35.790Z,99785.19
2022-11-16T05:20:23.483Z,99789.03
2022-11-16T05:22:56.510Z,99778.53
2022-11-16T05:25:25.111Z,99785.13
2022-11-16T05:27:53.914Z,99772.00
2022-11-16T05:30:21.771Z,99775.69
2022-11-16T05:32:49.818Z,99774.66
2022-11-16T05:35:18.752Z,99779.69
2022-11-16T05:37:47.304Z,99775.94
2022-11-16T05:40:16.065Z,99782.47
2022-11-16T05:42:44.376Z,99784.25
2022-11-16T05:45:14.913Z,99779.91
2022-11-16T05:47:46.524Z,99792.34
2022-11-16T05:50:36.339Z,99785.59
2022-11-16T05:53:09.675Z,99778.53
2022-11-16T05:55:57.286Z,99773.53
2022-11-16T05:58:25.756Z,99774.09
2022-11-16T06:00:53.967Z,99771.06
2022-11-16T06:03:22.757Z,99772.53
2022-11-16T06:05:53.275Z,99764.31
2022-11-16T06:08:21.607Z,99761.50
2022-11-16T06:10:51.102Z,99768.94
2022-11-16T06:13:19.125Z,99763.13
2022-11-16T06:15:52.570Z,99759.88
2022-11-16T06:18:21.955Z,99762.31
2022-11-16T06:20:50.280Z,99756.87
2022-11-16T06:24:02.738Z,99757.75
2022-11-16T06:27:18.520Z,99757.22
2022-11-16T06:30:13.271Z,99760.31
2022-11-16T06:32:40.946Z,99759.00
2022-11-16T06:35:30.026Z,99756.72
2022-11-16T06:38:18.680Z,99750.59
2022-11-16T06:40:52.817Z,99742.13
2022-11-16T06:43:21.275Z,99745.69
2022-11-16T06:45:55.394Z,99742.47
2022-11-16T06:48:23.938Z,99741.09
2022-11-16T06:50:52.869Z,99741.87
2022-11-16T06:53:44.689Z,99741.25
2022-11-16T06:56:15.998Z,99742.84
2022-11-16T06:59:04.784Z,99742.03
2022-11-16T07:01:33.141Z,99737.44
2022-11-16T07:04:11.910Z,99732.47
2022-11-16T07:06:43.589Z,99730.03
2022-11-16T07:09:15.476Z,99726.63
2022-11-16T07:11:44.568Z,99720.19
2022-11-16T07:14:14.025Z,99714.88
2022-11-16T07:16:42.374Z,99724.41
2022-11-16T07:19:11.235Z,99713.34
2022-11-16T07:21:39.938Z,99715.56
2022-11-16T07:24:08.145Z,99714.06
2022-11-16T07:26:36.181Z,99712.81
2022-11-16T07:29:04.312Z,99710.75
2022-11-16T07:31:33.365Z,99698.94
2022-11-16T07:34:11.619Z,99702.72
2022-11-16T07:36:39.975Z,99700.84
2022-11-16T07:39:10.290Z,99700.75
2022-11-16T07:41:38.874Z,99701.69
2022-11-16T07:44:11.912Z,99698.44
2022-11-16T07:46:48.670Z,99703.41
2022-11-16T07:49:18.949Z,99698.19
2022-11-16T07:51:48.535Z,99691.41
2022-11-16T07:54:16.942Z,99693.41
2022-11-16T07:56:45.355Z,99694.88
2022-11-16T07:59:13.704Z,99699.28
2022-11-16T08:01:41.925Z,99696.94
2022-11-16T08:04:11.081Z,99697.41
2022-11-16T08:06:39.845Z,99689.97
2022-11-16T08:09:27.880Z,99689.75
2022-11-16T08:11:56.032Z,99685.84
2022-11-16T08:14:44.143Z,99681.84
2022-11-16T08:17:13.063Z,99681.91
2022-11-16T08:20:00.674Z,99682.47
2022-11-16T08:22:30.255Z,99679.13
2022-11-16T08:24:58.502Z,99683.28
2022-11-16T08:27:26.566Z,99677.53
2022-11-16T08:29:56.173Z,99669.97
2022-11-16T08:32:23.934Z,99678.25
2022-11-16T08:34:53.410Z,99681.72
2022-11-16T08:37:22.888Z,99677.41
2022-11-16T08:39:50.850Z,99679.09
2022-11-16T08:42:21.490Z,99678.12
2022-11-16T08:44:49.953Z,99677.22
2022-11-16T08:47:18.503Z,99685.84
2022-11-16T08:49:49.730Z,99681.03
2022-11-16T08:52:18.519Z,99681.94
2022-11-16T08:54:47.395Z,99678.19
2022-11-16T08:57:16.473Z,99679.06
2022-11-16T08:59:44.923Z,99680.84
2022-11-16T09:02:12.917Z,99677.59
2022-11-16T09:04:40.627Z,99660.56
2022-11-16T09:07:09.861Z,99668.13
2022-11-16T09:09:37.716Z,99666.00
2022-11-16T09:12:05.597Z,99656.84
2022-11-16T09:14:33.512Z,99661.97
2022-11-16T09:17:01.218Z,99664.53
2022-11-16T09:19:28.922Z,99661.12
2022-11-16T09:21:56.971Z,99659.72
2022-11-16T09:24:24.555Z,99656.59
2022-11-16T09:26:52.226Z,99650.53
2022-11-16T09:29:20.934Z,99645.94
2022-11-16T09:31:48.917Z,99643.19
2022-11-16T09:34:17.177Z,99638.44
2022-11-16T09:36:45.294Z,99631.06
2022-11-16T09:39:30.070Z,99628.19
2022-11-16T09:42:23.756Z,99625.47
2022-11-16T09:45:04.802Z,99626.09
2022-11-16T09:47:44.730Z,99628.53
2022-11-16T09:50:27.851Z,99623.84
2022-11-16T09:53:04.602Z,99624.41
2022-11-16T09:55:52.074Z,99616.44
2022-11-16T09:58:31.979Z,99609.88
2022-11-16T10:01:06.582Z,99600.09
2022-11-16T10:03:40.919Z,99604.97
2022-11-16T10:06:19.953Z,99612.22
2022-11-16T10:08:51.672Z,99601.06
2022-11-16T10:11:37.871Z,99597.53
2022-11-16T10:14:18.226Z,99596.41
2022-11-16T10:16:51.838Z,99579.88
2022-11-16T10:19:35.205Z,99582.34
2022-11-16T10:22:40.809Z,99576.63
2022-11-16T10:25:26.525Z,99566.78
2022-11-16T10:28:15.971Z,99563.81
2022-11-16T10:31:00.335Z,99558.09
2022-11-16T10:34:16.046Z,99556.69
2022-11-16T10:36:47.645Z,99560.28
2022-11-16T10:39:19.761Z,99560.47
2022-11-16T10:41:51.071Z,99555.84
2022-11-16T10:44:21.680Z,99559.63
2022-11-16T10:47:37.066Z,99553.09
2022-11-16T10:50:33.450Z,99558.78
2022-11-16T10:53:39.514Z,99549.88
2022-11-16T10:56:28.417Z,99547.44
2022-11-16T10:59:09.171Z,99543.13
2022-11-16T11:01:41.308Z,99537.66
2022-11-16T11:04:24.824Z,99531.69
2022-11-16T11:06:55.435Z,99530.84
2022-11-16T11:09:36.214Z,99531.28
2022-11-16T11:12:37.806Z,99526.00
2022-11-16T11:15:11.889Z,99522.28
2022-11-16T11:17:42.263Z,99513.63
2022-11-16T11:20:17.090Z,99508.94
2022-11-16T11:23:02.647Z,99512.03
2022-11-16T11:25:36.856Z,99506.34
2022-11-16T11:28:20.240Z,99508.34
2022-11-16T11:31:56.270Z,99502.50
2022-11-16T11:34:50.329Z,99495.72
2022-11-16T11:37:39.653Z,99497.94
2022-11-16T11:40:28.925Z,99489.06
2022-11-16T11:43:25.382Z,99490.06
2022-11-16T11:46:30.610Z,99487.56
2022-11-16T11:49:36.154Z,99485.13
2022-11-16T11:53:13.322Z,99479.50
2022-11-16T11:56:01.760Z,99481.03
2022-11-16T11:58:33.641Z,99476.59
2022-11-16T12:01:01.865Z,99480.91
2022-11-16T12:03:57.964Z,99475.53
2022-11-16T12:06:38.754Z,99478.81
2022-11-16T12:09:18.066Z,99474.47
2022-11-16T12:12:26.188Z,99462.53
2022-11-16T12:15:29.187Z,99460.34
2022-11-16T12:18:20.782Z,99452.53
2022-11-16T12:21:22.576Z,99453.09
2022-11-16T12:23:56.718Z,99452.34
2022-11-16T12:26:52.741Z,99438.69
2022-11-16T12:29:40.180Z,99438.59
2022-11-16T12:32:33.397Z,99444.03
2022-11-16T12:35:38.923Z,99434.53
2022-11-16T12:38:29.793Z,99438.19
2022-11-16T12:41:57.255Z,99427.53
2022-11-16T12:44:55.896Z,99428.63
2022-11-16T12:47:47.122Z,99428.75
2022-11-16T12:50:33.836Z,99428.47
2022-11-16T12:53:27.651Z,99427.09
2022-11-16T12:56:24.301Z,99422.16
2022-11-16T12:59:16.540Z,99420.13
2022-11-16T13:02:00.807Z,99422.16
2022-11-16T13:04:35.434Z,99419.59
2022-11-16T13:07:13.036Z,99415.63
2022-11-16T13:09:48.873Z,99414.72
2022-11-16T13:12:23.481Z,99414.41
2022-11-16T13:14:55.040Z,99410.03
2022-11-16T13:17:28.145Z,99407.06
2022-11-16T13:20:17.556Z,99407.22
2022-11-16T13:23:00.413Z,99403.53
2022-11-16T13:25:33.189Z,99405.91
2022-11-16T13:28:20.540Z,99397.13
2022-11-16T13:31:13.084Z,99386.13
2022-11-16T13:33:50.983Z,99383.69
2022-11-16T13:36:39.309Z,99383.00
2022-11-16T13:39:08.594Z,99387.34
2022-11-16T13:41:38.646Z,99384.53
2022-11-16T13:44:14.497Z,99387.69
2022-11-16T13:46:55.689Z,99380.75
2022-11-16T13:49:29.950Z,99382.81
2022-11-16T13:52:17.204Z,99388.28
2022-11-16T13:54:53.236Z,99378.72
2022-11-16T13:57:26.471Z,99380.72
2022-11-16T14:00:21.197Z,99372.81
2022-11-16T14:02:49.225Z,99374.94
2022-11-16T14:05:41.627Z,99376.50
2022-11-16T14:08:24.966Z,99371.47
2022-11-16T14:10:52.586Z,99369.25
2022-11-16T14:13:53.477Z,99362.44
2022-11-16T14:16:21.736Z,99357.81
2022-11-16T14:18:52.198Z,99356.16
2022-11-16T14:21:19.975Z,99356.47
2022-11-16T14:23:47.538Z,99357.72
2022-11-16T14:26:21.804Z,99360.84
2022-11-16T14:29:08.775Z,99367.87
2022-11-16T14:31:55.023Z,99357.03
2022-11-16T14:34:48.217Z,99366.75
2022-11-16T14:37:21.822Z,99356.59
2022-11-16T14:39:51.375Z,99353.41
2022-11-16T14:42:38.114Z,99343.69
2022-11-16T14:45:28.406Z,99334.97
2022-11-16T14:48:02.960Z,99337.75
2022-11-16T14:50:36.709Z,99344.38
2022-11-16T14:53:13.145Z,99334.28
2022-11-16T14:55:46.276Z,99331.22
2022-11-16T14:58:14.171Z,99327.09
2022-11-16T15:00:42.565Z,99335.69
2022-11-16T15:03:12.356Z,99330.28
2022-11-16T15:05:40.441Z,99327.31
2022-11-16T15:08:19.537Z,99327.94
2022-11-16T15:10:52.329Z,99325.09
2022-11-16T15:13:45.432Z,99324.09
2022-11-16T15:16:20.071Z,99317.63
2022-11-16T15:19:02.368Z,99320.16
2022-11-16T15:21:30.378Z,99311.62
2022-11-16T15:26:46.204Z,99310.41
2022-11-16T15:29:17.367Z,99320.69
2022-11-16T15:31:48.401Z,99318.44
2022-11-16T15:34:18.863Z,99313.94
2022-11-16T15:36:48.677Z,99317.47
2022-11-16T15:39:24.772Z,99315.53
2022-11-16T15:41:52.898Z,99315.87
2022-11-16T15:44:23.621Z,99313.72
2022-11-16T15:46:55.398Z,99311.16
2022-11-16T15:49:26.093Z,99305.66
2022-11-16T15:51:53.856Z,99305.81
2022-11-16T15:54:25.064Z,99303.81
2022-11-16T15:56:56.805Z,99299.63
2022-11-16T15:59:32.550Z,99295.81
2022-11-16T16:02:00.753Z,99303.38
2022-11-16T16:04:29.127Z,99297.47
2022-11-16T16:07:12.972Z,99292.87
2022-11-16T16:09:41.171Z,99297.59
2022-11-16T16:12:19.852Z,99296.06
2022-11-16T16:14:49.439Z,99287.88
2022-11-16T16:17:29.621Z,99288.94
2022-11-16T16:20:06.913Z,99291.31
2022-11-16T16:22:37.872Z,99283.19
2022-11-16T16:25:26.155Z,99274.34
2022-11-16T16:27:54.219Z,99274.63
2022-11-16T16:30:22.441Z,99281.62
2022-11-16T16:32:51.194Z,99271.41
2022-11-16T16:35:22.665Z,99270.16
2022-11-16T16:37:56.799Z,99269.22
2022-11-16T16:40:25.238Z,99267.66
2022-11-16T16:42:56.089Z,99267.16
2022-11-16T16:45:35.196Z,99270.03
2022-11-16T16:48:03.880Z,99266.97
2022-11-16T16:50:31.853Z,99259.63
2022-11-16T16:53:00.201Z,99258.03
2022-11-16T16:55:37.009Z,99254.03
2022-11-16T16:58:38.043Z,99251.41
2022-11-16T17:02:02.141Z,99248.53
2022-11-16T17:04:39.173Z,99232.69
2022-11-16T17:07:28.488Z,99244.03
2022-11-16T17:10:17.435Z,99238.72
2022-11-16T17:13:25.553Z,99236.72
2022-11-16T17:16:13.446Z,99231.16
2022-11-16T17:19:34.150Z,99228.72
2022-11-16T17:22:47.375Z,99230.72
2022-11-16T17:25:44.703Z,99224.69
2022-11-16T17:32:30.354Z,99219.50
2022-11-16T17:35:18.578Z,99215.97
2022-11-16T17:37:46.713Z,99224.31
2022-11-16T17:40:16.161Z,99212.09
2022-11-16T17:42:48.115Z,99212.41
2022-11-16T17:46:05.773Z,99212.41
2022-11-16T17:49:22.512Z,99202.38
2022-11-16T17:52:10.117Z,99198.97
2022-11-16T17:54:58.889Z,99201.09
2022-11-16T17:57:46.496Z,99202.66
2022-11-16T18:00:54.617Z,99189.53
2022-11-16T18:04:22.953Z,99185.06
2022-11-16T18:07:01.214Z,99184.09
2022-11-16T18:09:30.029Z,99198.84
2022-11-16T18:12:02.211Z,99191.31
2022-11-16T18:14:35.767Z,99184.75
2022-11-16T18:17:23.768Z,99188.91
2022-11-16T18:19:56.151Z,99186.25
2022-11-16T18:22:24.479Z,99190.84
2022-11-16T18:25:12.882Z,99187.31
2022-11-16T18:28:01.273Z,99186.47
2022-11-16T18:30:30.372Z,99181.81
2022-11-16T18:32:58.714Z,99185.00
2022-11-16T18:35:26.554Z,99180.97
2022-11-16T18:37:55.082Z,99179.19
2022-11-16T18:40:23.966Z,99173.41
2022-11-16T18:42:51.990Z,99177.06
2022-11-16T18:45:20.262Z,99179.59
2022-11-16T18:47:48.158Z,99170.06
2022-11-16T18:50:20.226Z,99181.03
2022-11-16T18:53:11.425Z,99172.41
2022-11-16T18:55:59.230Z,99160.47
2022-11-16T18:58:49.824Z,99164.63
2022-11-16T19:01:36.517Z,99163.78
2022-11-16T19:04:07.682Z,99158.66
2022-11-16T19:06:37.285Z,99163.37
2022-11-16T19:09:09.683Z,99163.63
2022-11-16T19:11:57.232Z,99161.81
2022-11-16T19:14:45.125Z,99168.06
2022-11-16T19:17:48.178Z,99160.47
2022-11-16T19:20:24.728Z,99160.97
2022-11-16T19:22:53.126Z,99152.00
2022-11-16T19:25:22.561Z,99160.63
2022-11-16T19:28:10.427Z,99145.75
2022-11-16T19:30:58.115Z,99150.19
2022-11-16T19:33:26.469Z,99143.81
2022-11-16T19:36:17.017Z,99154.59
2022-11-16T19:38:47.287Z,99151.91
2022-11-16T19:41:17.361Z,99141.00
2022-11-16T19:43:45.656Z,99139.41
2022-11-16T19:46:20.537Z,99132.03
2022-11-16T19:48:49.905Z,99130.97
2022-11-16T19:51:29.693Z,99129.53
2022-11-16T19:54:02.367Z,99127.25
2022-11-16T19:56:30.629Z,99126.59
2022-11-16T19:58:58.932Z,99123.84
2022-11-16T20:01:29.410Z,99122.59
2022-11-16T20:04:00.413Z,99120.75
2022-11-16T20:06:34.170Z,99118.00
2022-11-16T20:09:08.713Z,99120.12
2022-11-16T20:11:41.324Z,99121.22
2022-11-16T20:14:11.885Z,99111.69
2022-11-16T20:16:46.586Z,99108.91
2022-11-16T20:19:15.798Z,99120.12
2022-11-16T20:21:44.765Z,99106.63
2022-11-16T20:24:15.174Z,99109.22
2022-11-16T20:26:48.669Z,99104.13
2022-11-16T20:29:18.744Z,99105.25
2022-11-16T20:31:47.415Z,99099.59
2022-11-16T20:34:18.580Z,99097.38
2022-11-16T20:36:48.155Z,99102.41
2022-11-16T20:39:29.599Z,99097.09
2022-11-16T20:41:59.079Z,99092.25
2022-11-16T20:44:27.326Z,99092.63
2022-11-16T20:46:55.630Z,99090.06
2022-11-16T20:49:24.053Z,99091.31
2022-11-16T20:51:52.289Z,99090.53
2022-11-16T20:54:20.102Z,99089.94
2022-11-16T20:56:49.741Z,99084.38
2022-11-16T20:59:17.993Z,99084.06
2022-11-16T21:01:48.813Z,99082.69
2022-11-16T21:04:17.101Z,99083.31
2022-11-16T21:06:45.011Z,99079.19
2022-11-16T21:09:15.628Z,99067.78
2022-11-16T21:12:02.500Z,99070.38
2022-11-16T21:14:30.483Z,99065.94
2022-11-16T21:16:58.420Z,99060.53
2022-11-16T21:19:26.420Z,99062.09
2022-11-16T21:21:54.159Z,99062.22
2022-11-16T21:24:24.771Z,99059.47
2022-11-16T21:26:52.549Z,99051.78
2022-11-16T21:29:25.909Z,99047.31
2022-11-16T21:31:53.938Z,99047.94
2022-11-16T21:34:21.532Z,99047.78
2022-11-16T21:36:49.263Z,99047.91
2022-11-16T21:39:17.669Z,99040.53
2022-11-16T21:41:45.346Z,99048.53
2022-11-16T21:44:12.952Z,99048.37
2022-11-16T21:46:41.147Z,99039.94
2022-11-16T21:49:09.475Z,99046.50
2022-11-16T21:51:37.090Z,99032.41
2022-11-16T21:54:05.121Z,99032.56
2022-11-16T21:56:32.786Z,99029.19
2022-11-16T21:59:00.568Z,99038.06
2022-11-16T22:01:48.588Z,99038.66
2022-11-16T22:04:35.478Z,99026.41
2022-11-16T22:07:21.858Z,99020.69
2022-11-16T22:09:49.871Z,99019.47
2022-11-16T22:12:17.479Z,99012.56
2022-11-16T22:14:45.127Z,99009.78
2022-11-16T22:17:13.233Z,99012.25
2022-11-16T22:19:40.914Z,99011.91
2022-11-16T22:22:08.600Z,99012.69
2022-11-16T22:24:36.641Z,99012.09
2022-11-16T22:27:04.367Z,99014.41
2022-11-16T22:29:32.165Z,99007.03
2022-11-16T22:32:00.346Z,99008.72
2022-11-16T22:34:28.030Z,99012.25
2022-11-16T22:36:55.628Z,99003.03
2022-11-16T22:39:23.655Z,98997.19
2022-11-16T22:41:51.620Z,98991.66
2022-11-16T22:44:19.459Z,98994.91
2022-11-16T22:46:49.493Z,98995.69
2022-11-16T22:49:17.523Z,98988.00
2022-11-16T22:51:46.007Z,98981.03
2022-11-16T22:54:15.683Z,98983.62
2022-11-16T22:56:43.938Z,98990.88
2022-11-16T22:59:11.527Z,98988.00
2022-11-16T23:01:39.478Z,98979.53
2022-11-16T23:04:07.134Z,98978.00
2022-11-16T23:06:34.782Z,98977.09
2022-11-16T23:09:02.941Z,98966.47
2022-11-16T23:11:49.184Z,98970.91
2022-11-16T23:14:36.138Z,98965.69
2022-11-16T23:17:04.454Z,98962.91
2022-11-16T23:19:52.859Z,98971.41
2022-11-16T23:22:40.624Z,98974.75
2022-11-16T23:25:30.515Z,98978.28
2022-11-16T23:27:58.155Z,98976.91
2022-11-16T23:30:26.711Z,98972.75
2022-11-16T23:32:54.727Z,98969.09
2022-11-16T23:35:23.300Z,98964.91
2022-11-16T23:37:57.110Z,98969.22
2022-11-16T23:40:30.376Z,98962.00
2022-11-16T23:43:18.574Z,98954.91
2022-11-16T23:45:46.488Z,98949.84
2022-11-16T23:48:16.655Z,98955.06
2022-11-16T23:50:45.932Z,98953.38
2022-11-16T23:53:14.465Z,98953.50
2022-11-16T23:55:42.363Z,98945.06
2022-11-16T23:58:13.698Z,98940.00
